createdAt,value
2019-03-02T00:01:29.604Z,38.85
2019-03-02T00:03:57.747Z,38.60
2019-03-02T00:06:25.617Z,37.40
2019-03-02T00:08:56.646Z,35.03
2019-03-02T00:11:24.649Z,35.33
2019-03-02T00:13:52.985Z,34.70
2019-03-02T00:16:21.216Z,34.80
2019-03-02T00:18:53.205Z,33.92
2019-03-02T00:21:22.663Z,34.00
2019-03-02T00:23:54.400Z,33.40
2019-03-02T00:26:23.724Z,32.30
2019-03-02T00:28:54.086Z,31.73
2019-03-02T00:31:21.749Z,32.20
2019-03-02T00:33:49.406Z,31.70
2019-03-02T00:36:19.470Z,35.75
2019-03-02T00:38:47.893Z,32.10
2019-03-02T00:41:15.741Z,32.42
2019-03-02T00:43:44.561Z,32.88
2019-03-02T00:46:12.264Z,33.63
2019-03-02T00:48:40.188Z,31.93
2019-03-02T00:51:11.045Z,34.23
2019-03-02T00:53:38.075Z,32.17
2019-03-02T00:56:07.809Z,36.03
2019-03-02T00:58:39.827Z,35.63
2019-03-02T01:01:07.872Z,32.83
2019-03-02T01:03:35.571Z,36.08
2019-03-02T01:06:04.371Z,32.25
2019-03-02T01:08:35.020Z,34.23
2019-03-02T01:11:02.977Z,35.05
2019-03-02T01:13:32.565Z,33.20
2019-03-02T01:16:00.600Z,32.48
2019-03-02T01:18:28.954Z,31.73
2019-03-02T01:20:56.730Z,30.72
2019-03-02T01:23:27.470Z,32.98
2019-03-02T01:25:54.909Z,33.85
2019-03-02T01:28:24.895Z,33.35
2019-03-02T01:30:52.726Z,32.98
2019-03-02T01:33:25.105Z,31.15
2019-03-02T01:35:53.933Z,29.57
2019-03-02T01:38:23.011Z,33.08
2019-03-02T01:40:50.782Z,32.67
2019-03-02T01:43:22.117Z,35.03
2019-03-02T01:45:50.161Z,34.67
2019-03-02T01:48:17.842Z,32.53
2019-03-02T01:50:47.729Z,34.63
2019-03-02T01:53:15.899Z,34.60
2019-03-02T01:55:43.749Z,33.90
2019-03-02T01:58:11.649Z,33.67
2019-03-02T02:00:39.784Z,33.05
2019-03-02T02:03:08.443Z,32.90
2019-03-02T02:05:37.787Z,34.73
2019-03-02T02:08:06.839Z,35.25
2019-03-02T02:10:35.595Z,37.88
2019-03-02T02:13:06.163Z,35.17
2019-03-02T02:15:34.121Z,35.65
2019-03-02T02:18:01.810Z,36.23
2019-03-02T02:20:29.792Z,34.35
2019-03-02T02:22:57.766Z,36.30
2019-03-02T02:25:28.357Z,32.20
2019-03-02T02:27:57.877Z,32.93
2019-03-02T02:30:27.472Z,34.20
2019-03-02T02:33:02.792Z,34.20
2019-03-02T02:35:25.879Z,32.60
2019-03-02T02:37:53.569Z,34.78
2019-03-02T02:40:21.393Z,31.77
2019-03-02T02:42:50.388Z,29.70
2019-03-02T02:45:18.452Z,28.52
2019-03-02T02:47:51.683Z,27.40
2019-03-02T02:50:17.962Z,28.80
2019-03-02T02:52:46.075Z,28.55
2019-03-02T02:55:14.483Z,28.10
2019-03-02T02:57:42.614Z,27.77
2019-03-02T03:00:16.569Z,27.52
2019-03-02T03:02:45.607Z,26.10
2019-03-02T03:05:15.435Z,24.30
2019-03-02T03:07:51.830Z,24.47
2019-03-02T03:10:33.558Z,22.60
2019-03-02T03:13:02.557Z,21.93
2019-03-02T03:15:50.616Z,24.67
2019-03-02T03:18:18.682Z,22.55
2019-03-02T03:20:48.960Z,24.18
2019-03-02T03:23:20.242Z,23.50
2019-03-02T03:25:46.448Z,22.50
2019-03-02T03:28:14.243Z,26.00
2019-03-02T03:30:42.092Z,23.30
2019-03-02T03:33:09.970Z,24.30
2019-03-02T03:35:37.652Z,23.12
2019-03-02T03:38:06.030Z,24.32
2019-03-02T03:40:33.814Z,23.95
2019-03-02T03:43:03.344Z,24.10
2019-03-02T03:45:31.857Z,25.02
2019-03-02T03:47:59.563Z,22.77
2019-03-02T03:50:27.261Z,23.62
2019-03-02T03:52:55.965Z,29.23
2019-03-02T03:55:26.819Z,23.32
2019-03-02T03:57:55.703Z,23.12
2019-03-02T04:00:24.030Z,25.95
2019-03-02T04:02:52.081Z,19.42
2019-03-02T04:05:20.033Z,20.50
2019-03-02T04:07:49.879Z,19.95
2019-03-02T04:10:24.774Z,20.48
2019-03-02T04:12:50.394Z,23.27
2019-03-02T04:15:18.489Z,24.80
2019-03-02T04:17:46.348Z,23.05
2019-03-02T04:20:17.833Z,23.27
2019-03-02T04:22:46.039Z,24.23
2019-03-02T04:25:17.873Z,24.07
2019-03-02T04:27:44.337Z,27.65
2019-03-02T04:30:12.666Z,32.03
2019-03-02T04:32:45.189Z,33.60
2019-03-02T04:35:13.379Z,35.55
2019-03-02T04:37:41.482Z,33.92
2019-03-02T04:40:11.548Z,37.58
2019-03-02T04:42:39.261Z,31.90
2019-03-02T04:45:07.616Z,31.45
2019-03-02T04:47:35.377Z,29.02
2019-03-02T04:50:03.551Z,26.37
2019-03-02T04:52:31.510Z,27.20
2019-03-02T04:54:59.478Z,25.85
2019-03-02T04:57:29.174Z,24.82
2019-03-02T04:59:57.672Z,23.98
2019-03-02T05:02:25.937Z,22.30
2019-03-02T05:04:53.724Z,23.07
2019-03-02T05:07:21.386Z,20.20
2019-03-02T05:09:52.060Z,19.92
2019-03-02T05:12:19.840Z,21.17
2019-03-02T05:14:48.197Z,19.42
2019-03-02T05:17:16.470Z,19.05
2019-03-02T05:19:45.172Z,19.35
2019-03-02T05:22:15.589Z,18.25
2019-03-02T05:24:44.618Z,17.48
2019-03-02T05:27:14.076Z,17.42
2019-03-02T05:29:42.783Z,16.52
2019-03-02T05:32:12.507Z,14.47
2019-03-02T05:34:42.143Z,14.83
2019-03-02T05:37:11.845Z,12.95
2019-03-02T05:39:40.533Z,12.20
2019-03-02T05:42:10.313Z,12.28
2019-03-02T05:44:40.508Z,12.05
2019-03-02T05:47:08.415Z,12.23
2019-03-02T05:49:36.936Z,11.38
2019-03-02T05:52:04.614Z,9.98
2019-03-02T05:54:33.382Z,11.40
2019-03-02T05:57:04.135Z,9.78
2019-03-02T05:59:33.642Z,9.90
2019-03-02T06:02:02.229Z,10.68
2019-03-02T06:04:30.504Z,10.25
2019-03-02T06:06:58.352Z,9.55
2019-03-02T06:09:26.114Z,9.78
2019-03-02T06:11:54.045Z,9.45
2019-03-02T06:14:21.725Z,9.95
2019-03-02T06:16:49.789Z,8.35
2019-03-02T06:19:23.395Z,10.05
2019-03-02T06:21:48.797Z,10.58
2019-03-02T06:24:17.037Z,9.78
2019-03-02T06:26:44.926Z,10.03
2019-03-02T06:29:13.977Z,9.68
2019-03-02T06:31:41.904Z,10.10
2019-03-02T06:34:09.684Z,9.58
2019-03-02T06:36:40.945Z,9.53
2019-03-02T06:40:02.890Z,9.08
2019-03-02T06:42:50.040Z,9.40
2019-03-02T06:45:17.679Z,9.33
2019-03-02T06:47:44.969Z,9.73
2019-03-02T06:50:12.504Z,11.05
2019-03-02T06:52:40.007Z,10.58
2019-03-02T06:55:10.129Z,9.93
2019-03-02T06:57:37.378Z,11.70
2019-03-02T07:00:16.731Z,9.60
2019-03-02T07:02:44.103Z,10.90
2019-03-02T07:05:13.926Z,11.25
2019-03-02T07:07:41.475Z,10.68
2019-03-02T07:10:12.887Z,10.28
2019-03-02T07:12:41.806Z,11.05
2019-03-02T07:15:10.091Z,11.57
2019-03-02T07:17:52.215Z,11.63
2019-03-02T07:20:23.963Z,11.50
2019-03-02T07:22:52.459Z,10.48
2019-03-02T07:25:20.652Z,11.60
2019-03-02T07:27:48.105Z,11.93
2019-03-02T07:30:15.936Z,10.50
2019-03-02T07:32:43.748Z,11.60
2019-03-02T07:35:21.140Z,10.95
2019-03-02T07:37:50.185Z,10.70
2019-03-02T07:40:18.454Z,11.18
2019-03-02T07:42:46.746Z,13.18
2019-03-02T07:45:21.778Z,10.20
2019-03-02T07:47:49.878Z,12.93
2019-03-02T07:50:17.695Z,11.90
2019-03-02T07:52:45.545Z,11.05
2019-03-02T07:55:14.781Z,13.68
2019-03-02T07:57:44.592Z,10.68
2019-03-02T08:00:16.390Z,12.20
2019-03-02T08:02:44.476Z,10.95
2019-03-02T08:05:14.717Z,12.10
2019-03-02T08:07:43.967Z,10.98
2019-03-02T08:10:15.275Z,10.08
2019-03-02T08:12:43.651Z,9.55
2019-03-02T08:15:14.821Z,9.68
2019-03-02T08:17:45.661Z,10.82
2019-03-02T08:20:20.835Z,9.83
2019-03-02T08:22:47.765Z,10.45
2019-03-02T08:25:21.451Z,10.80
2019-03-02T08:27:51.298Z,10.45
2019-03-02T08:30:20.455Z,10.43
2019-03-02T08:32:48.736Z,10.20
2019-03-02T08:35:16.850Z,10.35
2019-03-02T08:37:45.035Z,13.57
2019-03-02T08:40:15.375Z,10.27
2019-03-02T08:42:43.492Z,7.50
2019-03-02T08:45:14.521Z,8.60
2019-03-02T08:47:42.213Z,9.68
2019-03-02T08:50:13.932Z,9.30
2019-03-02T08:52:42.417Z,8.30
2019-03-02T08:55:13.081Z,8.55
2019-03-02T08:57:40.836Z,8.05
2019-03-02T09:00:20.366Z,8.93
2019-03-02T09:02:48.055Z,8.10
2019-03-02T09:05:18.650Z,9.10
2019-03-02T09:07:46.848Z,9.77
2019-03-02T09:10:17.434Z,8.87
2019-03-02T09:12:45.378Z,10.33
2019-03-02T09:15:17.606Z,10.00
2019-03-02T09:17:45.466Z,10.63
2019-03-02T09:20:13.985Z,10.67
2019-03-02T09:22:42.113Z,12.13
2019-03-02T09:25:11.921Z,11.05
2019-03-02T09:27:39.891Z,9.90
2019-03-02T09:30:11.431Z,10.75
2019-03-02T09:32:40.921Z,10.00
2019-03-02T09:35:16.175Z,9.08
2019-03-02T09:37:44.878Z,9.60
2019-03-02T09:40:13.379Z,9.10
2019-03-02T09:42:42.604Z,9.55
2019-03-02T09:45:12.732Z,9.50
2019-03-02T09:47:43.922Z,8.90
2019-03-02T09:50:13.636Z,9.63
2019-03-02T09:52:42.261Z,10.33
2019-03-02T09:55:11.265Z,8.80
2019-03-02T09:57:41.710Z,9.97
2019-03-02T10:00:12.741Z,11.97
2019-03-02T10:02:41.531Z,10.40
2019-03-02T10:05:11.479Z,9.80
2019-03-02T10:07:39.320Z,10.20
2019-03-02T10:10:09.177Z,11.00
2019-03-02T10:12:38.510Z,11.38
2019-03-02T10:15:10.771Z,12.10
2019-03-02T10:17:39.782Z,13.00
2019-03-02T10:20:08.532Z,14.57
2019-03-02T10:22:36.733Z,13.20
2019-03-02T10:25:05.127Z,12.83
2019-03-02T10:27:32.911Z,15.40
2019-03-02T10:30:01.108Z,14.33
2019-03-02T10:32:28.908Z,15.20
2019-03-02T10:34:58.951Z,15.13
2019-03-02T10:37:26.689Z,12.50
2019-03-02T10:39:57.904Z,14.40
2019-03-02T10:42:27.793Z,14.20
2019-03-02T10:44:59.839Z,14.63
2019-03-02T10:47:28.092Z,13.23
2019-03-02T10:49:57.250Z,13.93
2019-03-02T10:52:26.191Z,13.07
2019-03-02T10:54:55.764Z,13.07
2019-03-02T10:57:23.643Z,12.20
2019-03-02T10:59:53.144Z,12.23
2019-03-02T11:02:21.101Z,11.10
2019-03-02T11:05:10.068Z,13.33
2019-03-02T11:08:09.204Z,11.83
2019-03-02T11:11:07.861Z,13.43
2019-03-02T11:13:58.149Z,12.80
2019-03-02T11:16:44.587Z,13.17
2019-03-02T11:19:24.069Z,13.77
2019-03-02T11:22:15.036Z,13.80
2019-03-02T11:25:09.118Z,13.47
2019-03-02T11:27:59.128Z,11.80
2019-03-02T11:30:45.659Z,11.10
2019-03-02T11:33:33.446Z,11.33
2019-03-02T11:36:20.787Z,11.20
2019-03-02T11:39:20.049Z,11.73
2019-03-02T11:42:16.534Z,11.20
2019-03-02T11:45:21.975Z,11.50
2019-03-02T11:48:01.035Z,10.23
2019-03-02T11:50:50.878Z,9.63
2019-03-02T11:53:52.025Z,12.77
2019-03-02T11:56:39.140Z,11.10
2019-03-02T11:59:32.669Z,11.33
2019-03-02T12:02:25.634Z,11.10
2019-03-02T12:05:12.862Z,10.35
2019-03-02T12:08:22.059Z,11.22
2019-03-02T12:11:22.628Z,10.40
2019-03-02T12:14:14.516Z,10.28
2019-03-02T12:17:04.408Z,11.25
2019-03-02T12:19:43.118Z,9.55
2019-03-02T12:22:30.371Z,9.83
2019-03-02T12:25:19.217Z,9.00
2019-03-02T12:28:18.496Z,9.00
2019-03-02T12:31:05.947Z,10.13
2019-03-02T12:34:03.988Z,10.30
2019-03-02T12:36:40.551Z,10.35
2019-03-02T12:39:20.021Z,9.83
2019-03-02T12:42:11.966Z,9.10
2019-03-02T12:44:54.187Z,10.15
2019-03-02T12:47:38.444Z,10.45
2019-03-02T12:50:33.282Z,15.00
2019-03-02T12:53:36.063Z,8.70
2019-03-02T12:56:29.187Z,8.98
2019-03-02T12:59:16.420Z,7.75
2019-03-02T13:01:59.366Z,8.28
2019-03-02T13:04:52.948Z,8.93
2019-03-02T13:07:47.064Z,9.58
2019-03-02T13:10:41.622Z,9.13
2019-03-02T13:13:29.227Z,10.05
2019-03-02T13:16:23.591Z,10.08
2019-03-02T13:19:12.230Z,9.18
2019-03-02T13:22:11.418Z,9.03
2019-03-02T13:25:08.393Z,8.30
2019-03-02T13:27:49.736Z,7.20
2019-03-02T13:30:29.621Z,8.50
2019-03-02T13:33:22.317Z,7.67
2019-03-02T13:36:09.937Z,7.70
2019-03-02T13:39:00.142Z,7.28
2019-03-02T13:41:46.519Z,7.85
2019-03-02T13:44:38.812Z,7.47
2019-03-02T13:47:29.052Z,9.05
2019-03-02T13:50:25.634Z,6.87
2019-03-02T13:53:20.002Z,8.83
2019-03-02T13:56:10.226Z,8.58
2019-03-02T13:59:00.902Z,9.85
2019-03-02T14:01:48.419Z,9.35
2019-03-02T14:04:48.109Z,9.65
2019-03-02T14:07:27.210Z,9.08
2019-03-02T14:10:20.584Z,10.23
2019-03-02T14:13:27.120Z,11.08
2019-03-02T14:16:22.495Z,10.10
2019-03-02T14:19:12.901Z,10.32
2019-03-02T14:22:00.067Z,9.80
2019-03-02T14:24:38.728Z,11.35
2019-03-02T14:27:35.102Z,11.70
2019-03-02T14:30:21.273Z,11.35
2019-03-02T14:33:09.739Z,11.93
2019-03-02T14:35:58.824Z,12.53
2019-03-02T14:39:01.397Z,15.40
2019-03-02T14:42:04.139Z,27.22
2019-03-02T14:45:06.228Z,20.92
2019-03-02T14:47:42.563Z,15.68
2019-03-02T14:50:30.149Z,14.00
2019-03-02T14:53:10.007Z,10.90
2019-03-02T14:56:00.398Z,11.80
2019-03-02T14:58:46.740Z,10.75
2019-03-02T15:01:36.187Z,14.38
2019-03-02T15:04:32.356Z,11.60
2019-03-02T15:07:31.894Z,12.37
2019-03-02T15:10:06.783Z,10.28
2019-03-02T15:12:53.990Z,10.48
2019-03-02T15:15:36.054Z,11.25
2019-03-02T15:18:38.272Z,9.78
2019-03-02T15:21:24.288Z,10.13
2019-03-02T15:24:16.577Z,10.32
2019-03-02T15:27:07.123Z,10.40
2019-03-02T15:30:06.761Z,9.75
2019-03-02T15:32:53.324Z,10.00
2019-03-02T15:35:33.674Z,10.32
2019-03-02T15:38:17.696Z,10.28
2019-03-02T15:41:05.278Z,10.05
2019-03-02T15:43:46.351Z,10.50
2019-03-02T15:46:40.144Z,10.60
2019-03-02T15:49:40.309Z,12.00
2019-03-02T15:52:35.957Z,11.05
2019-03-02T15:55:21.758Z,12.07
2019-03-02T15:58:19.844Z,12.63
2019-03-02T16:01:07.546Z,12.55
2019-03-02T16:03:44.526Z,12.70
2019-03-02T16:06:33.421Z,12.45
2019-03-02T16:09:29.781Z,14.33
2019-03-02T16:12:09.865Z,14.45
2019-03-02T16:14:51.653Z,13.32
2019-03-02T16:17:40.056Z,15.32
2019-03-02T16:20:18.552Z,14.35
2019-03-02T16:22:54.041Z,13.22
2019-03-02T16:25:31.437Z,14.13
2019-03-02T16:28:22.082Z,14.33
2019-03-02T16:31:12.128Z,15.95
2019-03-02T16:34:10.134Z,16.07
2019-03-02T16:37:09.441Z,14.45
2019-03-02T16:39:54.354Z,15.90
2019-03-02T16:42:56.956Z,15.10
2019-03-02T16:45:43.310Z,14.68
2019-03-02T16:48:40.054Z,14.73
2019-03-02T16:51:16.477Z,14.75
2019-03-02T16:54:05.065Z,14.03
2019-03-02T16:56:43.857Z,13.95
2019-03-02T16:59:20.310Z,15.40
2019-03-02T17:02:07.838Z,14.65
2019-03-02T17:05:13.068Z,16.32
2019-03-02T17:08:00.807Z,16.17
2019-03-02T17:10:59.588Z,16.20
2019-03-02T17:13:37.781Z,15.18
2019-03-02T17:16:28.178Z,15.85
2019-03-02T17:19:15.881Z,15.95
2019-03-02T17:21:58.648Z,16.87
2019-03-02T17:25:02.425Z,15.98
2019-03-02T17:27:37.795Z,17.35
2019-03-02T17:30:34.029Z,17.25
2019-03-02T17:33:14.099Z,17.35
2019-03-02T17:36:02.066Z,19.02
2019-03-02T17:38:53.029Z,21.95
2019-03-02T17:41:30.519Z,19.57
2019-03-02T17:44:12.716Z,21.17
2019-03-02T17:46:59.982Z,20.85
2019-03-02T17:49:50.131Z,23.02
2019-03-02T17:52:38.365Z,23.83
2019-03-02T17:55:24.949Z,24.87
2019-03-02T17:58:14.420Z,23.65
2019-03-02T18:01:19.596Z,22.52
2019-03-02T18:04:06.724Z,23.07
2019-03-02T18:07:00.652Z,22.52
2019-03-02T18:09:51.003Z,24.45
2019-03-02T18:12:29.343Z,22.62
2019-03-02T18:15:29.969Z,21.87
2019-03-02T18:18:04.359Z,20.80
2019-03-02T18:20:33.744Z,18.67
2019-03-02T18:23:01.564Z,19.40
2019-03-02T18:25:29.608Z,19.62
2019-03-02T18:27:59.276Z,17.30
2019-03-02T18:30:28.414Z,17.80
2019-03-02T18:32:59.943Z,18.20
2019-03-02T18:35:29.176Z,17.25
2019-03-02T18:37:57.087Z,19.90
2019-03-02T18:40:24.759Z,18.15
2019-03-02T18:42:52.845Z,18.12
2019-03-02T18:45:20.719Z,17.52
2019-03-02T18:47:48.413Z,17.82
2019-03-02T18:50:41.662Z,18.37
2019-03-02T18:53:09.560Z,17.57
2019-03-02T18:55:37.506Z,17.25
2019-03-02T18:58:06.833Z,17.85
2019-03-02T19:00:39.938Z,17.05
2019-03-02T19:03:09.166Z,20.02
2019-03-02T19:05:38.477Z,19.27
2019-03-02T19:08:11.594Z,19.05
2019-03-02T19:10:39.730Z,18.55
2019-03-02T19:13:09.820Z,21.02
2019-03-02T19:15:39.411Z,18.77
2019-03-02T19:18:07.607Z,19.50
2019-03-02T19:20:42.419Z,21.62
2019-03-02T19:23:10.748Z,19.23
2019-03-02T19:25:38.835Z,19.92
2019-03-02T19:28:07.239Z,19.00
2019-03-02T19:30:41.682Z,18.45
2019-03-02T19:33:10.348Z,20.52
2019-03-02T19:35:38.633Z,18.23
2019-03-02T19:38:06.944Z,18.67
2019-03-02T19:40:35.402Z,19.70
2019-03-02T19:43:03.810Z,21.48
2019-03-02T19:45:32.634Z,20.57
2019-03-02T19:48:01.620Z,18.10
2019-03-02T19:50:33.243Z,18.48
2019-03-02T19:53:01.483Z,18.57
2019-03-02T19:55:29.784Z,17.92
2019-03-02T19:57:58.019Z,21.50
2019-03-02T20:00:27.126Z,20.02
2019-03-02T20:02:57.046Z,19.10
2019-03-02T20:05:26.230Z,19.48
2019-03-02T20:07:54.441Z,18.73
2019-03-02T20:10:23.586Z,19.48
2019-03-02T20:12:51.695Z,19.87
2019-03-02T20:15:19.794Z,20.02
2019-03-02T20:17:48.033Z,21.10
2019-03-02T20:20:16.922Z,20.60
2019-03-02T20:22:46.890Z,19.00
2019-03-02T20:25:14.674Z,20.20
2019-03-02T20:27:43.192Z,20.75
2019-03-02T20:30:14.519Z,19.30
2019-03-02T20:32:42.998Z,19.80
2019-03-02T20:35:14.892Z,19.05
2019-03-02T20:37:44.366Z,20.30
2019-03-02T20:40:16.554Z,17.50
2019-03-02T20:42:45.017Z,20.15
2019-03-02T20:45:14.425Z,19.55
2019-03-02T20:47:42.807Z,16.67
2019-03-02T20:50:14.859Z,18.90
2019-03-02T20:52:43.058Z,18.42
2019-03-02T20:55:12.023Z,18.25
2019-03-02T20:57:42.363Z,19.00
2019-03-02T21:00:16.374Z,17.82
2019-03-02T21:02:45.569Z,17.00
2019-03-02T21:05:14.243Z,19.00
2019-03-02T21:07:42.938Z,16.67
2019-03-02T21:10:12.943Z,19.37
2019-03-02T21:12:41.549Z,18.05
2019-03-02T21:15:17.366Z,18.35
2019-03-02T21:17:46.193Z,17.40
2019-03-02T21:20:16.302Z,17.82
2019-03-02T21:22:47.036Z,20.30
2019-03-02T21:25:15.210Z,20.25
2019-03-02T21:27:43.467Z,20.48
2019-03-02T21:30:13.496Z,19.42
2019-03-02T21:32:41.667Z,19.45
2019-03-02T21:35:09.765Z,17.75
2019-03-02T21:37:38.221Z,19.15
2019-03-02T21:40:12.341Z,18.65
2019-03-02T21:42:40.912Z,18.90
2019-03-02T21:45:11.992Z,20.12
2019-03-02T21:47:42.787Z,17.10
2019-03-02T21:50:12.927Z,18.35
2019-03-02T21:52:44.147Z,18.30
2019-03-02T21:55:12.686Z,18.42
2019-03-02T21:57:41.222Z,17.57
2019-03-02T22:00:12.940Z,18.05
2019-03-02T22:02:41.498Z,16.93
2019-03-02T22:05:10.981Z,16.50
2019-03-02T22:07:39.253Z,17.77
2019-03-02T22:10:11.150Z,17.55
2019-03-02T22:12:39.474Z,18.23
2019-03-02T22:15:10.353Z,17.87
2019-03-02T22:17:39.010Z,15.95
2019-03-02T22:20:09.259Z,17.67
2019-03-02T22:22:37.497Z,17.75
2019-03-02T22:25:06.930Z,18.40
2019-03-02T22:27:35.296Z,17.98
2019-03-02T22:30:04.393Z,18.00
2019-03-02T22:32:33.064Z,18.05
2019-03-02T22:35:02.572Z,17.85
2019-03-02T22:37:30.866Z,17.90
2019-03-02T22:39:59.159Z,18.40
2019-03-02T22:42:27.805Z,18.50
2019-03-02T22:44:56.085Z,18.15
2019-03-02T22:47:24.349Z,18.10
2019-03-02T22:49:52.636Z,18.87
2019-03-02T22:52:20.529Z,21.52
2019-03-02T22:54:48.837Z,19.57
2019-03-02T22:57:16.631Z,18.55
2019-03-02T23:00:13.796Z,18.87
2019-03-02T23:02:41.871Z,18.55
2019-03-02T23:05:10.559Z,17.95
2019-03-02T23:07:38.822Z,18.50
2019-03-02T23:10:07.880Z,19.62
2019-03-02T23:12:35.750Z,20.32
2019-03-02T23:15:04.080Z,19.42
2019-03-02T23:17:32.586Z,19.80
2019-03-02T23:20:00.897Z,20.05
2019-03-02T23:22:28.888Z,20.50
2019-03-02T23:24:56.754Z,18.60
2019-03-02T23:27:24.522Z,19.52
2019-03-02T23:29:52.487Z,19.42
2019-03-02T23:32:22.433Z,21.15
2019-03-02T23:34:50.680Z,19.15
2019-03-02T23:37:20.355Z,21.17
2019-03-02T23:39:48.873Z,20.50
2019-03-02T23:42:17.993Z,20.20
2019-03-02T23:44:46.250Z,20.08
2019-03-02T23:47:15.378Z,21.80
2019-03-02T23:49:43.686Z,22.95
2019-03-02T23:52:12.306Z,23.83
2019-03-02T23:54:40.553Z,21.90
2019-03-02T23:57:08.271Z,23.30
2019-03-02T23:59:36.764Z,24.77
